This is the latest recevied weather packets stored in our database for station/object AJ7DN. If no packets are shown the sender has not sent any weather packets the latest 10 day(s).
| Time | Temp. | Humidity | Pressure | Rain* | Wind** | Luminosity | Snow |
|---|---|---|---|---|---|---|---|
| 1777870979 | 25° C | 40% | 1011.6 hPa | 0 mm | - | 0 W/m² | - |
| 1777870677 | 25° C | 41% | 1011.5 hPa | 0 mm | - | 0 W/m² | - |
| 1777870376 | 25° C | 41% | 1011.6 hPa | 0 mm | - | 0 W/m² | - |
| 1777870074 | 25° C | 42% | 1011.5 hPa | 0 mm | - | 0 W/m² | - |
| 1777869772 | 25° C | 42% | 1011.5 hPa | 0 mm | - | 0 W/m² | - |
| 1777869468 | 25° C | 41% | 1011.5 hPa | 0 mm | - | 0 W/m² | - |
| 1777869165 | 25.56° C | 41% | 1011.4 hPa | 0 mm | - | 0 W/m² | - |
| 1777868863 | 25.56° C | 40% | 1011.4 hPa | 0 mm | - | 0 W/m² | - |
| 1777868559 | 25.56° C | 40% | 1011.4 hPa | 0 mm | - | 0 W/m² | - |
| 1777868256 | 25.56° C | 41% | 1011.4 hPa | 0 mm | - | 0 W/m² | - |
| 1777867952 | 25° C | 42% | 1011.2 hPa | 0 mm | - | 0 W/m² | - |
| 1777867648 | 25° C | 42% | 1011.3 hPa | 0 mm | - | 0 W/m² | - |
| 1777867345 | 25° C | 42% | 1011.4 hPa | 0 mm | - | 0 W/m² | - |
| 1777867041 | 24.44° C | 44% | 1011.1 hPa | 0 mm | - | 0 W/m² | - |
| 1777866739 | 24.44° C | 45% | 1011.3 hPa | 0 mm | - | 0 W/m² | - |
| 1777866436 | 23.89° C | 44% | 1011.2 hPa | 0 mm | - | 0 W/m² | - |
| 1777866134 | 23.89° C | 47% | 1011.2 hPa | 0 mm | - | 0 W/m² | - |
| 1777865831 | 23.89° C | 48% | 1011 hPa | 0 mm | - | 0 W/m² | - |
| 1777865528 | 24.44° C | 46% | 1011.2 hPa | 0 mm | - | 0 W/m² | - |
| 1777865225 | 25° C | 44% | 1010.9 hPa | 0 mm | - | 0 W/m² | - |
| 1777864922 | 25° C | 42% | 1011 hPa | 0 mm | - | 0 W/m² | - |
| 1777864619 | 25.56° C | 43% | 1011 hPa | 0 mm | - | 0 W/m² | - |
| 1777864315 | 25.56° C | 42% | 1010.9 hPa | 0 mm | - | 2 W/m² | - |
| 1777864012 | 26.11° C | 41% | 1011 hPa | 0 mm | - | 3 W/m² | - |
| 1777863709 | 27.22° C | 38% | 1010.7 hPa | 0 mm | - | 5 W/m² | - |
* Rain latest hour (hover to see other rain measurements)
** Current wind speed in m/s (hover to see current wind gust speed)